Time;durP1;ratioP1;P1;durP2;ratioP2;P2;SDS_P1;SDS_P2;PMS_P1;PMS_P2;Temp;Humidity;BMP_temperature;BMP_pressure;BME280_temperature;BME280_humidity;BME280_pressure;Samples;Min_cycle;Max_cycle;Signal;HPM_P1;HPM_P2
2021/08/28 00:00:51;;;;;;;;;7.00;3.75;;;;;;;;6276566;22;45428;-72
2021/08/28 00:03:19;;;;;;;;;2.75;2.75;;;;;;;;6303845;22;47096;-72
2021/08/28 00:05:45;;;;;;;;;1.25;1.25;;;;;;;;6303885;22;45234;-72
2021/08/28 00:08:10;;;;;;;;;1.75;1.75;;;;;;;;6303958;22;45256;-72
2021/08/28 00:10:35;;;;;;;;;2.50;2.50;;;;;;;;6304145;22;45431;-72
2021/08/28 00:13:01;;;;;;;;;3.00;3.00;;;;;;;;6304308;22;45981;-73
2021/08/28 00:15:26;;;;;;;;;4.00;1.00;;;;;;;;6304517;22;45352;-73
2021/08/28 00:17:51;;;;;;;;;2.25;1.25;;;;;;;;6304263;22;45293;-72
2021/08/28 00:20:16;;;;;;;;;1.50;1.25;;;;;;;;6304429;22;45391;-73
2021/08/28 00:22:42;;;;;;;;;5.00;3.00;;;;;;;;6304440;22;45241;-73
2021/08/28 00:25:08;;;;;;;;;4.25;3.75;;;;;;;;6304441;22;45271;-73
2021/08/28 00:27:34;;;;;;;;;1.50;1.50;;;;;;;;6304580;22;45311;-73
2021/08/28 00:29:59;;;;;;;;;3.75;1.75;;;;;;;;6303951;22;45452;-73
2021/08/28 00:32:24;;;;;;;;;1.50;1.50;;;;;;;;6304093;22;46376;-72
2021/08/28 00:34:49;;;;;;;;;4.50;3.50;;;;;;;;6303903;22;45245;-73
2021/08/28 00:37:14;;;;;;;;;2.00;2.00;;;;;;;;6304833;22;45273;-72
2021/08/28 00:39:40;;;;;;;;;3.00;1.50;;;;;;;;6304952;22;45453;-72
2021/08/28 00:42:05;;;;;;;;;4.50;3.75;;;;;;;;6304530;22;45301;-73
2021/08/28 00:44:30;;;;;;;;;3.25;1.00;;;;;;;;6304585;22;45290;-72
2021/08/28 00:46:56;;;;;;;;;5.00;3.00;;;;;;;;6304624;22;45213;-72
2021/08/28 00:49:21;;;;;;;;;2.50;2.50;;;;;;;;6304245;22;45273;-72
2021/08/28 00:51:46;;;;;;;;;4.00;3.00;;;;;;;;6304586;22;46306;-72
2021/08/28 00:54:11;;;;;;;;;3.50;2.25;;;;;;;;6304184;22;45282;-72
2021/08/28 00:56:37;;;;;;;;;1.25;1.25;;;;;;;;6275697;22;45301;-72
2021/08/28 00:59:02;;;;;;;;;1.25;1.25;;;;;;;;6303540;22;45337;-72
2021/08/28 01:01:31;;;;;;;;;6.00;4.00;;;;;;;;6304107;22;45890;-72
2021/08/28 01:03:59;;;;;;;;;2.25;2.25;;;;;;;;6303534;22;45214;-72
2021/08/28 01:06:33;;;;;;;;;2.00;2.00;;;;;;;;6304462;22;45344;-72
2021/08/28 01:09:07;;;;;;;;;2.50;2.00;;;;;;;;6304148;22;45324;-72
2021/08/28 01:11:47;;;;;;;;;3.00;3.00;;;;;;;;6303977;22;46324;-72
2021/08/28 01:14:14;;;;;;;;;1.75;1.75;;;;;;;;6303919;22;45324;-72
2021/08/28 01:16:54;;;;;;;;;2.00;2.00;;;;;;;;6304437;22;45312;-72
2021/08/28 01:19:26;;;;;;;;;2.00;1.50;;;;;;;;6304448;22;45359;-72
2021/08/28 01:21:52;;;;;;;;;5.75;4.00;;;;;;;;6303675;22;47428;-72
2021/08/28 01:24:18;;;;;;;;;5.50;5.50;;;;;;;;6303404;22;45353;-72
2021/08/28 01:27:15;;;;;;;;;2.00;2.00;;;;;;;;6304281;22;45372;-73
2021/08/28 01:29:42;;;;;;;;;1.50;1.50;;;;;;;;6178627;23;45339;-72
2021/08/28 01:32:07;;;;;;;;;2.00;2.00;;;;;;;;6177753;23;45259;-72
2021/08/28 01:34:33;;;;;;;;;8.75;7.50;;;;;;;;6152800;23;45342;-71
2021/08/28 01:36:58;;;;;;;;;3.25;3.25;;;;;;;;6178615;23;45290;-72
2021/08/28 01:39:24;;;;;;;;;3.50;3.00;;;;;;;;6178438;23;45292;-72
2021/08/28 01:41:51;;;;;;;;;2.00;2.00;;;;;;;;6178498;23;46366;-72
2021/08/28 01:44:17;;;;;;;;;3.00;1.75;;;;;;;;6177883;23;45249;-73
2021/08/28 01:46:43;;;;;;;;;1.25;1.00;;;;;;;;6178327;23;45336;-71
2021/08/28 01:49:09;;;;;;;;;4.25;3.75;;;;;;;;6178597;23;45316;-72
2021/08/28 01:51:34;;;;;;;;;3.00;3.00;;;;;;;;6178689;23;46029;-72
2021/08/28 01:54:00;;;;;;;;;2.25;2.25;;;;;;;;6178549;23;45247;-72
2021/08/28 01:56:25;;;;;;;;;5.25;2.75;;;;;;;;6178374;23;45345;-72
2021/08/28 01:58:51;;;;;;;;;1.75;1.75;;;;;;;;6178749;23;45297;-72
2021/08/28 02:01:16;;;;;;;;;3.50;3.50;;;;;;;;6177418;23;46480;-72
2021/08/28 02:03:41;;;;;;;;;2.25;2.25;;;;;;;;6178892;23;45314;-71
2021/08/28 02:06:11;;;;;;;;;2.50;1.25;;;;;;;;6284133;22;45305;-71
2021/08/28 02:08:50;;;;;;;;;2.50;2.50;;;;;;;;6303856;22;45191;-72
2021/08/28 02:11:23;;;;;;;;;3.75;2.00;;;;;;;;6303527;22;46822;-72
2021/08/28 02:13:50;;;;;;;;;2.00;1.50;;;;;;;;6304115;22;45375;-72
2021/08/28 02:16:17;;;;;;;;;3.25;2.75;;;;;;;;6303010;22;45300;-72
2021/08/28 02:18:48;;;;;;;;;2.00;1.75;;;;;;;;6303720;22;45434;-72
2021/08/28 02:21:14;;;;;;;;;2.75;1.00;;;;;;;;6303363;22;46212;-72
2021/08/28 02:23:43;;;;;;;;;4.25;2.00;;;;;;;;6303483;22;45385;-72
2021/08/28 02:26:11;;;;;;;;;1.75;1.75;;;;;;;;6303864;22;45213;-72
2021/08/28 02:29:02;;;;;;;;;3.50;2.00;;;;;;;;6303008;22;45261;-72
2021/08/28 02:31:37;;;;;;;;;6.75;4.00;;;;;;;;6296163;22;46508;-72
2021/08/28 02:34:04;;;;;;;;;2.25;2.25;;;;;;;;6303329;22;45167;-72
2021/08/28 02:36:29;;;;;;;;;5.00;3.75;;;;;;;;6303862;22;45285;-72
2021/08/28 02:38:56;;;;;;;;;3.50;1.75;;;;;;;;6303476;22;45371;-72
2021/08/28 02:41:22;;;;;;;;;4.50;4.00;;;;;;;;6302575;22;47385;-73
2021/08/28 02:43:49;;;;;;;;;5.75;3.50;;;;;;;;6302593;22;45338;-72
2021/08/28 02:46:15;;;;;;;;;3.00;1.75;;;;;;;;6303749;22;45316;-73
2021/08/28 02:48:40;;;;;;;;;5.75;3.75;;;;;;;;6303897;22;45323;-72
2021/08/28 02:51:07;;;;;;;;;2.00;2.00;;;;;;;;6303742;22;45943;-73
2021/08/28 02:53:33;;;;;;;;;1.50;1.50;;;;;;;;6303421;22;45207;-73
2021/08/28 02:56:00;;;;;;;;;3.00;1.00;;;;;;;;6303800;22;45221;-73
2021/08/28 02:58:26;;;;;;;;;4.50;3.75;;;;;;;;6302578;22;45144;-72
2021/08/28 03:00:52;;;;;;;;;4.00;2.50;;;;;;;;6303306;22;45205;-72
2021/08/28 03:03:18;;;;;;;;;7.00;5.00;;;;;;;;6303441;22;45282;-72
2021/08/28 03:05:46;;;;;;;;;2.25;1.00;;;;;;;;6303292;22;45359;-72
2021/08/28 03:08:12;;;;;;;;;7.00;7.00;;;;;;;;6303073;22;45349;-72
2021/08/28 03:10:37;;;;;;;;;2.75;2.75;;;;;;;;6302871;22;45263;-72
2021/08/28 03:13:02;;;;;;;;;4.00;3.75;;;;;;;;6302406;22;45610;-72
2021/08/28 03:15:28;;;;;;;;;4.75;3.50;;;;;;;;6303288;22;45273;-72
2021/08/28 03:17:53;;;;;;;;;4.00;3.00;;;;;;;;6303422;22;45290;-73
2021/08/28 03:20:18;;;;;;;;;2.25;2.25;;;;;;;;6304472;22;46934;-73
2021/08/28 03:22:45;;;;;;;;;1.00;1.00;;;;;;;;6304974;22;45327;-72
2021/08/28 03:25:11;;;;;;;;;4.25;2.75;;;;;;;;6304432;22;45276;-71
2021/08/28 03:27:39;;;;;;;;;3.25;3.00;;;;;;;;6303898;22;45441;-72
2021/08/28 03:30:05;;;;;;;;;4.25;3.00;;;;;;;;6304147;22;47351;-72
2021/08/28 03:32:31;;;;;;;;;5.00;3.00;;;;;;;;6276722;22;46029;-72
2021/08/28 03:34:56;;;;;;;;;4.25;2.00;;;;;;;;6304876;22;45540;-72
2021/08/28 03:37:22;;;;;;;;;3.00;3.00;;;;;;;;6304698;22;45322;-72
2021/08/28 03:39:47;;;;;;;;;2.25;2.25;;;;;;;;6304217;22;46150;-72
2021/08/28 03:42:13;;;;;;;;;3.75;3.00;;;;;;;;6304133;22;45269;-72
2021/08/28 03:44:39;;;;;;;;;2.25;2.00;;;;;;;;6304430;22;45265;-72
2021/08/28 03:47:04;;;;;;;;;2.25;2.00;;;;;;;;6304772;22;45243;-72
2021/08/28 03:49:30;;;;;;;;;4.00;2.75;;;;;;;;6304337;22;46849;-72
2021/08/28 03:51:55;;;;;;;;;6.50;5.00;;;;;;;;6304302;22;45274;-72
2021/08/28 03:54:20;;;;;;;;;4.25;3.50;;;;;;;;6304521;22;45197;-72
2021/08/28 03:56:45;;;;;;;;;4.75;3.50;;;;;;;;6304148;22;45395;-72
2021/08/28 03:59:10;;;;;;;;;6.75;3.50;;;;;;;;6304619;22;45316;-72
2021/08/28 04:01:36;;;;;;;;;3.00;1.50;;;;;;;;6304522;22;45403;-72
2021/08/28 04:04:01;;;;;;;;;4.50;3.00;;;;;;;;6304718;22;45197;-72
2021/08/28 04:06:26;;;;;;;;;3.00;3.00;;;;;;;;6304784;22;45455;-72
2021/08/28 04:08:51;;;;;;;;;5.25;4.25;;;;;;;;6304176;22;45822;-72
2021/08/28 04:11:16;;;;;;;;;3.50;2.00;;;;;;;;6304127;22;45236;-72
2021/08/28 04:13:42;;;;;;;;;1.50;1.50;;;;;;;;6304047;22;45151;-72
2021/08/28 04:16:07;;;;;;;;;8.50;2.50;;;;;;;;6303500;22;45352;-72
2021/08/28 04:18:33;;;;;;;;;3.00;3.00;;;;;;;;6304541;22;46092;-72
2021/08/28 04:20:58;;;;;;;;;3.50;3.50;;;;;;;;6304370;22;45449;-71
2021/08/28 04:23:23;;;;;;;;;4.00;3.00;;;;;;;;6304604;22;45293;-71
2021/08/28 04:25:48;;;;;;;;;4.00;2.00;;;;;;;;6304369;22;45435;-71
2021/08/28 04:28:13;;;;;;;;;2.25;2.00;;;;;;;;6304226;22;45462;-75
2021/08/28 04:30:38;;;;;;;;;1.75;1.75;;;;;;;;6304079;22;45361;-74
2021/08/28 04:33:04;;;;;;;;;3.00;3.00;;;;;;;;6304071;22;45268;-75
2021/08/28 04:35:29;;;;;;;;;2.00;2.00;;;;;;;;6304601;22;45276;-75
2021/08/28 04:37:54;;;;;;;;;3.75;3.75;;;;;;;;6303859;22;47142;-75
2021/08/28 04:40:20;;;;;;;;;6.25;4.25;;;;;;;;6303728;22;45392;-75
2021/08/28 04:42:45;;;;;;;;;3.75;3.75;;;;;;;;6303885;22;45260;-75
2021/08/28 04:45:10;;;;;;;;;3.75;2.75;;;;;;;;6303820;22;45303;-75
2021/08/28 04:47:36;;;;;;;;;6.00;3.50;;;;;;;;6303882;22;45228;-75
2021/08/28 04:50:02;;;;;;;;;1.75;1.75;;;;;;;;6303922;22;45246;-75
2021/08/28 04:52:27;;;;;;;;;1.75;1.75;;;;;;;;6304270;22;45257;-75
2021/08/28 04:54:53;;;;;;;;;5.00;4.00;;;;;;;;6275792;22;45384;-75
2021/08/28 04:57:18;;;;;;;;;7.75;4.75;;;;;;;;6303746;22;46186;-75
2021/08/28 04:59:43;;;;;;;;;4.25;4.25;;;;;;;;6304196;22;45725;-75
2021/08/28 05:02:08;;;;;;;;;3.50;3.50;;;;;;;;6303989;22;45223;-75
2021/08/28 05:04:33;;;;;;;;;6.00;4.00;;;;;;;;6304020;22;45154;-74
2021/08/28 05:06:59;;;;;;;;;5.75;3.00;;;;;;;;6303862;22;45352;-76
2021/08/28 05:09:24;;;;;;;;;6.00;4.00;;;;;;;;6303320;22;45737;-76
2021/08/28 05:11:50;;;;;;;;;4.00;3.00;;;;;;;;6303912;22;45234;-74
2021/08/28 05:14:15;;;;;;;;;5.00;4.00;;;;;;;;6303809;22;45265;-75
2021/08/28 05:16:40;;;;;;;;;4.25;4.00;;;;;;;;6303247;22;45934;-74
2021/08/28 05:19:06;;;;;;;;;8.25;5.75;;;;;;;;6303907;22;45300;-76
2021/08/28 05:21:31;;;;;;;;;3.25;3.25;;;;;;;;6303923;22;45256;-74
2021/08/28 05:23:56;;;;;;;;;3.75;3.00;;;;;;;;6303104;22;45261;-75
2021/08/28 05:26:22;;;;;;;;;5.00;4.25;;;;;;;;6302688;22;46375;-75
2021/08/28 05:28:47;;;;;;;;;5.50;5.00;;;;;;;;6303714;22;45300;-74
2021/08/28 05:31:12;;;;;;;;;3.00;2.50;;;;;;;;6304467;22;45259;-75
2021/08/28 05:33:37;;;;;;;;;3.50;3.00;;;;;;;;6303953;22;45487;-75
2021/08/28 05:36:02;;;;;;;;;6.00;4.50;;;;;;;;6303867;22;45329;-75
2021/08/28 05:38:28;;;;;;;;;2.00;2.00;;;;;;;;6303248;22;45402;-74
2021/08/28 05:40:53;;;;;;;;;5.00;3.50;;;;;;;;6303327;22;45345;-74
2021/08/28 05:43:18;;;;;;;;;8.25;7.00;;;;;;;;6304148;22;45344;-74
2021/08/28 05:45:43;;;;;;;;;4.50;3.50;;;;;;;;6303812;22;45402;-75
2021/08/28 05:48:08;;;;;;;;;4.50;3.50;;;;;;;;6303264;22;45324;-74
2021/08/28 05:50:34;;;;;;;;;8.25;4.50;;;;;;;;6303121;22;45331;-75
2021/08/28 05:52:59;;;;;;;;;5.00;3.00;;;;;;;;6302482;22;45246;-74
2021/08/28 05:55:24;;;;;;;;;6.25;4.25;;;;;;;;6302951;22;45455;-74
2021/08/28 05:57:49;;;;;;;;;2.00;2.00;;;;;;;;6303854;22;45291;-74
2021/08/28 06:00:15;;;;;;;;;9.00;3.25;;;;;;;;6304280;22;45490;-75
2021/08/28 06:02:40;;;;;;;;;2.00;2.00;;;;;;;;6304019;22;45383;-75
2021/08/28 06:05:09;;;;;;;;;4.00;4.00;;;;;;;;6303894;22;46027;-75
2021/08/28 06:07:34;;;;;;;;;5.25;5.25;;;;;;;;6302870;22;45263;-76
2021/08/28 06:10:00;;;;;;;;;3.50;3.50;;;;;;;;6303241;22;45602;-75
2021/08/28 06:12:26;;;;;;;;;12.00;6.75;;;;;;;;6303588;22;45466;-75
2021/08/28 06:14:51;;;;;;;;;6.75;6.25;;;;;;;;6274894;22;46981;-75
2021/08/28 06:17:16;;;;;;;;;5.75;4.75;;;;;;;;6303011;22;45247;-74
2021/08/28 06:19:41;;;;;;;;;6.25;6.00;;;;;;;;6303765;22;45218;-75
2021/08/28 06:22:06;;;;;;;;;8.00;5.00;;;;;;;;6303093;22;45209;-75
2021/08/28 06:24:31;;;;;;;;;4.25;3.00;;;;;;;;6303486;22;46022;-74
2021/08/28 06:26:57;;;;;;;;;6.00;5.00;;;;;;;;6303520;22;45529;-75
2021/08/28 06:29:23;;;;;;;;;5.75;4.50;;;;;;;;6302781;22;45240;-74
2021/08/28 06:31:49;;;;;;;;;3.50;3.50;;;;;;;;6303082;22;45304;-75
2021/08/28 06:34:14;;;;;;;;;6.00;6.00;;;;;;;;6302892;22;45252;-75
2021/08/28 06:36:39;;;;;;;;;5.75;4.25;;;;;;;;6302565;22;45360;-74
2021/08/28 06:39:04;;;;;;;;;8.25;4.00;;;;;;;;6302980;22;45267;-75
2021/08/28 06:41:30;;;;;;;;;8.25;5.25;;;;;;;;6303225;22;45415;-75
2021/08/28 06:43:55;;;;;;;;;4.25;4.00;;;;;;;;6275422;22;46242;-76
2021/08/28 06:46:20;;;;;;;;;6.00;4.00;;;;;;;;6302878;22;45244;-75
2021/08/28 06:48:45;;;;;;;;;5.25;4.50;;;;;;;;6302674;22;45280;-75
2021/08/28 06:51:10;;;;;;;;;9.50;7.75;;;;;;;;6301891;22;45342;-76
2021/08/28 06:53:36;;;;;;;;;5.00;2.25;;;;;;;;6275488;22;47928;-76
2021/08/28 06:56:01;;;;;;;;;5.00;4.75;;;;;;;;6304781;22;45268;-74
2021/08/28 06:58:26;;;;;;;;;6.00;5.00;;;;;;;;6277135;22;45278;-74
2021/08/28 07:00:51;;;;;;;;;5.00;5.00;;;;;;;;6304284;22;45282;-74
2021/08/28 07:03:16;;;;;;;;;5.00;3.75;;;;;;;;6304311;22;45319;-76
2021/08/28 07:05:42;;;;;;;;;4.50;2.00;;;;;;;;6303054;22;45296;-74
2021/08/28 07:08:07;;;;;;;;;6.00;5.00;;;;;;;;6304368;22;45237;-74
2021/08/28 07:10:32;;;;;;;;;5.75;4.00;;;;;;;;6304343;22;45405;-74
2021/08/28 07:12:57;;;;;;;;;5.00;5.00;;;;;;;;6303856;22;47127;-76
2021/08/28 07:15:23;;;;;;;;;7.00;6.00;;;;;;;;6304032;22;45335;-75
2021/08/28 07:17:48;;;;;;;;;8.00;5.50;;;;;;;;6304693;22;45339;-76
2021/08/28 07:20:13;;;;;;;;;7.50;5.50;;;;;;;;6304191;22;45257;-75
2021/08/28 07:22:38;;;;;;;;;8.25;5.50;;;;;;;;6304140;22;45322;-75
2021/08/28 07:25:04;;;;;;;;;5.00;4.50;;;;;;;;6304551;22;45277;-74
2021/08/28 07:27:30;;;;;;;;;4.50;4.50;;;;;;;;6303841;22;45284;-74
2021/08/28 07:29:55;;;;;;;;;4.25;3.75;;;;;;;;6304449;22;45408;-75
2021/08/28 07:32:20;;;;;;;;;7.50;5.25;;;;;;;;6304215;22;45964;-75
2021/08/28 07:34:46;;;;;;;;;5.75;4.25;;;;;;;;6303709;22;45281;-74
2021/08/28 07:37:11;;;;;;;;;6.25;5.50;;;;;;;;6304316;22;45304;-75
2021/08/28 07:39:36;;;;;;;;;7.25;7.00;;;;;;;;6304031;22;45392;-75
2021/08/28 07:42:02;;;;;;;;;7.25;5.00;;;;;;;;6274988;22;46950;-74
2021/08/28 07:44:27;;;;;;;;;7.75;7.25;;;;;;;;6301699;22;45362;-73
2021/08/28 07:46:53;;;;;;;;;6.25;3.00;;;;;;;;6303213;22;45249;-74
2021/08/28 07:49:18;;;;;;;;;8.25;6.50;;;;;;;;6303108;22;45372;-72
2021/08/28 07:51:43;;;;;;;;;4.50;4.00;;;;;;;;6303641;22;45287;-72
2021/08/28 07:54:08;;;;;;;;;8.25;6.50;;;;;;;;6303237;22;45357;-70
2021/08/28 07:56:34;;;;;;;;;8.25;5.25;;;;;;;;6303395;22;45292;-72
2021/08/28 07:58:59;;;;;;;;;4.00;4.00;;;;;;;;6303481;22;45401;-71
2021/08/28 08:01:24;;;;;;;;;6.50;6.50;;;;;;;;6302938;22;45433;-73
2021/08/28 08:03:49;;;;;;;;;8.00;6.00;;;;;;;;6302506;22;45551;-72
2021/08/28 08:06:15;;;;;;;;;5.75;5.75;;;;;;;;6302052;22;45280;-71
2021/08/28 08:08:40;;;;;;;;;12.00;4.50;;;;;;;;6303343;22;45221;-72
2021/08/28 08:11:05;;;;;;;;;5.00;5.00;;;;;;;;6302915;22;46126;-73
2021/08/28 08:13:31;;;;;;;;;7.50;5.25;;;;;;;;6303379;22;45290;-73
2021/08/28 08:15:56;;;;;;;;;10.00;4.00;;;;;;;;6275932;22;45408;-73
2021/08/28 08:18:21;;;;;;;;;3.25;3.25;;;;;;;;6302625;22;45285;-72
2021/08/28 08:20:46;;;;;;;;;7.00;6.00;;;;;;;;6303037;22;45416;-73
2021/08/28 08:23:12;;;;;;;;;6.75;5.00;;;;;;;;6303520;22;45248;-73
2021/08/28 08:25:37;;;;;;;;;7.00;7.00;;;;;;;;6303728;22;45319;-75
2021/08/28 08:28:02;;;;;;;;;5.75;5.75;;;;;;;;6302767;22;45468;-75
2021/08/28 08:30:27;;;;;;;;;10.25;8.00;;;;;;;;6303215;22;45614;-75
2021/08/28 08:32:52;;;;;;;;;5.75;5.75;;;;;;;;6302628;22;45268;-75
2021/08/28 08:35:17;;;;;;;;;6.00;6.00;;;;;;;;6303200;22;45304;-75
2021/08/28 08:37:43;;;;;;;;;5.75;5.00;;;;;;;;6303064;22;45420;-75
2021/08/28 08:40:08;;;;;;;;;6.00;4.25;;;;;;;;6302904;22;46206;-76
2021/08/28 08:42:34;;;;;;;;;5.00;4.50;;;;;;;;6303534;22;45264;-75
2021/08/28 08:44:59;;;;;;;;;5.00;4.50;;;;;;;;6303618;22;45242;-77
2021/08/28 08:47:25;;;;;;;;;6.00;5.00;;;;;;;;6302752;22;45159;-74
2021/08/28 08:49:52;;;;;;;;;10.50;7.00;;;;;;;;6303242;22;45221;-71
2021/08/28 08:52:18;;;;;;;;;3.50;3.50;;;;;;;;6302427;22;45224;-71
2021/08/28 08:54:43;;;;;;;;;8.25;5.75;;;;;;;;6302824;22;45260;-71
2021/08/28 08:57:09;;;;;;;;;6.00;5.25;;;;;;;;6303250;22;45296;-70
2021/08/28 08:59:34;;;;;;;;;3.50;2.50;;;;;;;;6302922;22;46883;-73
2021/08/28 09:02:02;;;;;;;;;2.50;2.50;;;;;;;;6302650;22;45346;-72
2021/08/28 09:04:27;;;;;;;;;5.00;5.00;;;;;;;;6303417;22;45292;-73
2021/08/28 09:06:52;;;;;;;;;5.25;5.25;;;;;;;;6302232;22;45286;-71
2021/08/28 09:09:17;;;;;;;;;5.00;4.25;;;;;;;;6301232;22;47485;-70
2021/08/28 09:11:58;;;;;;;;;4.25;4.25;;;;;;;;6302766;22;45234;-71
2021/08/28 09:14:23;;;;;;;;;5.75;5.75;;;;;;;;6302128;22;45364;-70
2021/08/28 09:16:49;;;;;;;;;6.25;4.75;;;;;;;;6299775;22;45239;-71
2021/08/28 09:19:14;;;;;;;;;5.00;3.75;;;;;;;;6302350;22;45328;-72
2021/08/28 09:21:40;;;;;;;;;5.75;4.75;;;;;;;;6303230;22;45253;-72
2021/08/28 09:24:06;;;;;;;;;5.25;5.25;;;;;;;;6302279;22;45272;-72
2021/08/28 09:26:33;;;;;;;;;5.50;3.75;;;;;;;;6302794;22;45267;-69
2021/08/28 09:28:59;;;;;;;;;4.25;3.25;;;;;;;;6302069;22;45325;-70
2021/08/28 09:31:44;;;;;;;;;6.25;4.00;;;;;;;;6302141;22;45267;-69
2021/08/28 09:34:20;;;;;;;;;3.33;3.33;;;;;;;;6302259;22;45350;-70
2021/08/28 09:36:50;;;;;;;;;6.00;6.00;;;;;;;;6302066;22;45198;-71
2021/08/28 09:39:16;;;;;;;;;6.00;5.00;;;;;;;;6302299;22;46008;-70
2021/08/28 09:41:42;;;;;;;;;7.00;5.67;;;;;;;;6302773;22;45411;-70
2021/08/28 09:44:07;;;;;;;;;5.33;4.00;;;;;;;;6302565;22;45284;-71
2021/08/28 09:46:33;;;;;;;;;4.00;2.67;;;;;;;;6302686;22;45365;-69
2021/08/28 09:49:00;;;;;;;;;5.00;3.00;;;;;;;;6301974;22;45354;-70
2021/08/28 09:51:25;;;;;;;;;3.33;3.00;;;;;;;;6302311;22;45296;-70
2021/08/28 09:53:59;;;;;;;;;4.00;4.00;;;;;;;;6302131;22;45502;-69
2021/08/28 09:56:24;;;;;;;;;3.33;3.33;;;;;;;;6302666;22;45471;-70
2021/08/28 09:58:50;;;;;;;;;3.00;3.00;;;;;;;;6301820;22;45231;-70
2021/08/28 10:01:16;;;;;;;;;6.33;4.00;;;;;;;;6302020;22;45251;-70
2021/08/28 10:03:41;;;;;;;;;6.67;3.33;;;;;;;;6302613;22;45345;-70
2021/08/28 10:06:07;;;;;;;;;4.00;4.00;;;;;;;;6302220;22;45126;-70
2021/08/28 10:08:32;;;;;;;;;5.33;4.67;;;;;;;;6302551;22;45939;-71
2021/08/28 10:10:59;;;;;;;;;14.00;10.33;;;;;;;;6302283;22;45155;-72
2021/08/28 10:13:24;;;;;;;;;4.00;3.67;;;;;;;;6302344;22;45229;-71
2021/08/28 10:15:50;;;;;;;;;3.67;3.00;;;;;;;;6302192;22;45279;-70
2021/08/28 10:18:15;;;;;;;;;4.00;4.00;;;;;;;;6302300;22;47078;-70
2021/08/28 10:20:40;;;;;;;;;5.67;3.00;;;;;;;;6302819;22;45311;-70
2021/08/28 10:23:06;;;;;;;;;3.00;3.00;;;;;;;;6274960;22;45701;-69
2021/08/28 10:25:35;;;;;;;;;4.00;4.00;;;;;;;;6302826;22;45265;-70
2021/08/28 10:28:01;;;;;;;;;3.00;3.00;;;;;;;;6273243;22;47278;-69
2021/08/28 10:30:27;;;;;;;;;7.67;5.67;;;;;;;;6301308;22;45382;-70
2021/08/28 10:32:53;;;;;;;;;3.33;3.33;;;;;;;;6301279;22;45252;-72
2021/08/28 10:35:19;;;;;;;;;4.67;3.33;;;;;;;;6301791;22;45378;-71
2021/08/28 10:37:45;;;;;;;;;5.00;5.00;;;;;;;;6302209;22;46165;-68
2021/08/28 10:40:13;;;;;;;;;6.33;5.00;;;;;;;;6301881;22;45328;-71
2021/08/28 10:42:40;;;;;;;;;3.00;3.00;;;;;;;;6301882;22;45225;-72
2021/08/28 10:45:06;;;;;;;;;4.33;4.33;;;;;;;;6302807;22;45268;-71
2021/08/28 10:47:32;;;;;;;;;3.33;3.00;;;;;;;;6302233;22;46133;-72
2021/08/28 10:50:02;;;;;;;;;5.00;4.00;;;;;;;;6301831;22;45230;-70
2021/08/28 10:52:27;;;;;;;;;3.00;3.00;;;;;;;;6302254;22;45223;-71
2021/08/28 10:54:57;;;;;;;;;4.33;3.00;;;;;;;;6302621;22;45463;-71
2021/08/28 10:57:28;;;;;;;;;3.00;3.00;;;;;;;;6301039;22;47316;-69
2021/08/28 11:00:08;;;;;;;;;6.67;5.00;;;;;;;;6301336;22;45242;-69
2021/08/28 11:02:52;;;;;;;;;8.33;5.67;;;;;;;;6301064;22;45353;-68
2021/08/28 11:05:22;;;;;;;;;4.33;2.33;;;;;;;;6301562;22;45379;-69
2021/08/28 11:07:48;;;;;;;;;8.67;5.33;;;;;;;;6301576;22;46042;-68
2021/08/28 11:10:13;;;;;;;;;4.00;2.67;;;;;;;;6301705;22;45223;-67
2021/08/28 11:12:59;;;;;;;;;4.67;4.67;;;;;;;;6301702;22;45210;-69
2021/08/28 11:15:24;;;;;;;;;3.00;3.00;;;;;;;;6301040;22;45531;-69
2021/08/28 11:17:49;;;;;;;;;4.00;4.00;;;;;;;;6301824;22;46207;-68
2021/08/28 11:20:21;;;;;;;;;3.67;3.67;;;;;;;;6301889;22;45346;-70
2021/08/28 11:22:47;;;;;;;;;8.33;7.00;;;;;;;;6302178;22;45293;-69
2021/08/28 11:25:13;;;;;;;;;3.67;3.67;;;;;;;;6302173;22;45611;-68
2021/08/28 11:27:39;;;;;;;;;6.33;4.67;;;;;;;;6301176;22;46091;-68
2021/08/28 11:30:05;;;;;;;;;10.33;7.67;;;;;;;;6301337;22;45344;-68
2021/08/28 11:32:30;;;;;;;;;5.00;5.00;;;;;;;;6301690;22;45308;-68
2021/08/28 11:34:57;;;;;;;;;2.33;1.00;;;;;;;;6274590;22;45269;-68
2021/08/28 11:37:28;;;;;;;;;1.67;1.00;;;;;;;;6301113;22;46455;-67
2021/08/28 11:39:54;;;;;;;;;7.00;7.00;;;;;;;;6274806;22;45255;-69
2021/08/28 11:42:20;;;;;;;;;5.00;4.33;;;;;;;;6302978;22;45269;-67
2021/08/28 11:44:49;;;;;;;;;4.67;4.67;;;;;;;;6302665;22;45175;-68
2021/08/28 11:47:14;;;;;;;;;2.67;2.00;;;;;;;;6302200;22;46197;-71
2021/08/28 11:49:39;;;;;;;;;2.67;1.67;;;;;;;;6302924;22;45238;-67
2021/08/28 11:52:05;;;;;;;;;6.67;6.00;;;;;;;;6303091;22;45356;-69
2021/08/28 11:54:31;;;;;;;;;7.33;6.33;;;;;;;;6303388;22;45300;-68
2021/08/28 11:56:57;;;;;;;;;5.00;5.00;;;;;;;;6303020;22;45305;-70
2021/08/28 11:59:32;;;;;;;;;3.00;3.00;;;;;;;;6302293;22;45320;-68
2021/08/28 12:01:57;;;;;;;;;4.67;3.00;;;;;;;;6302482;22;45309;-68
2021/08/28 12:04:22;;;;;;;;;5.67;5.00;;;;;;;;6302995;22;45228;-68
2021/08/28 12:06:51;;;;;;;;;2.00;2.00;;;;;;;;6302347;22;46071;-69
2021/08/28 12:09:17;;;;;;;;;3.67;2.67;;;;;;;;6302085;22;45366;-69
2021/08/28 12:11:46;;;;;;;;;2.67;2.00;;;;;;;;6303086;22;45208;-70
2021/08/28 12:14:12;;;;;;;;;1.67;1.67;;;;;;;;6302232;22;45347;-70
2021/08/28 12:16:38;;;;;;;;;3.00;2.00;;;;;;;;6302587;22;45278;-68
2021/08/28 12:19:30;;;;;;;;;2.33;1.33;;;;;;;;6303278;22;45351;-67
2021/08/28 12:21:59;;;;;;;;;1.33;1.33;;;;;;;;6296911;22;45285;-68
2021/08/28 12:24:24;;;;;;;;;5.00;5.00;;;;;;;;6301744;22;45158;-69
2021/08/28 12:26:50;;;;;;;;;5.33;4.00;;;;;;;;6301303;22;46083;-68
2021/08/28 12:29:22;;;;;;;;;4.67;3.33;;;;;;;;6301946;22;45305;-68
2021/08/28 12:31:56;;;;;;;;;5.33;4.00;;;;;;;;6301817;22;45338;-68
2021/08/28 12:34:22;;;;;;;;;4.00;3.00;;;;;;;;6303050;22;45720;-68
2021/08/28 12:36:48;;;;;;;;;2.67;2.67;;;;;;;;6302050;22;46100;-67
2021/08/28 12:39:13;;;;;;;;;3.33;3.33;;;;;;;;6302071;22;45301;-68
2021/08/28 12:41:38;;;;;;;;;6.33;3.67;;;;;;;;6302500;22;45336;-68
2021/08/28 12:44:05;;;;;;;;;3.67;3.67;;;;;;;;6302295;22;45414;-69
2021/08/28 12:46:31;;;;;;;;;1.67;1.67;;;;;;;;6301862;22;46327;-66
2021/08/28 12:49:15;;;;;;;;;2.67;1.33;;;;;;;;6302177;22;45189;-68
2021/08/28 12:51:52;;;;;;;;;6.33;4.33;;;;;;;;6302367;22;45195;-67
2021/08/28 12:54:43;;;;;;;;;2.33;2.33;;;;;;;;6301348;22;45326;-67
2021/08/28 12:57:09;;;;;;;;;3.67;2.33;;;;;;;;6296231;22;46149;-69
2021/08/28 12:59:44;;;;;;;;;2.67;1.33;;;;;;;;6302633;22;45374;-68
2021/08/28 13:02:15;;;;;;;;;5.33;5.33;;;;;;;;6302149;22;45326;-70
2021/08/28 13:04:40;;;;;;;;;4.00;3.00;;;;;;;;6302219;22;45368;-67
2021/08/28 13:07:13;;;;;;;;;2.00;2.00;;;;;;;;6274207;22;46077;-67
2021/08/28 13:09:57;;;;;;;;;2.67;2.67;;;;;;;;6301988;22;45276;-66
2021/08/28 13:12:39;;;;;;;;;9.33;5.67;;;;;;;;6302124;22;45308;-69
2021/08/28 13:15:04;;;;;;;;;2.67;2.67;;;;;;;;6273792;22;45263;-68
2021/08/28 13:17:29;;;;;;;;;4.00;3.00;;;;;;;;6301284;22;46520;-69
2021/08/28 13:20:02;;;;;;;;;3.33;2.33;;;;;;;;6302392;22;45323;-68
2021/08/28 13:22:28;;;;;;;;;3.33;3.33;;;;;;;;6303015;22;45288;-67
2021/08/28 13:24:53;;;;;;;;;2.00;2.00;;;;;;;;6302345;22;45387;-68
2021/08/28 13:27:18;;;;;;;;;3.67;3.00;;;;;;;;6301880;22;46153;-67
2021/08/28 13:29:43;;;;;;;;;3.33;3.00;;;;;;;;6301962;22;45238;-67
2021/08/28 13:32:17;;;;;;;;;2.00;2.00;;;;;;;;6302023;22;45468;-68
2021/08/28 13:34:43;;;;;;;;;7.00;5.33;;;;;;;;6302583;22;45435;-67
2021/08/28 13:37:10;;;;;;;;;9.00;9.00;;;;;;;;6301720;22;45903;-66
2021/08/28 13:39:35;;;;;;;;;5.33;3.67;;;;;;;;6301447;22;45254;-68
2021/08/28 13:42:01;;;;;;;;;9.00;8.67;;;;;;;;6273636;22;45353;-66
2021/08/28 13:44:26;;;;;;;;;12.50;9.25;;;;;;;;6302668;22;45217;-67
2021/08/28 13:46:51;;;;;;;;;42.25;36.00;;;;;;;;6301538;22;46959;-67
2021/08/28 13:49:17;;;;;;;;;12.67;11.33;;;;;;;;6302285;22;45217;-68
2021/08/28 13:51:42;;;;;;;;;4.67;4.67;;;;;;;;6301791;22;45176;-69
2021/08/28 13:54:07;;;;;;;;;6.33;6.00;;;;;;;;6302170;22;45451;-67
2021/08/28 13:56:32;;;;;;;;;3.67;3.33;;;;;;;;6302850;22;45257;-69
2021/08/28 13:58:57;;;;;;;;;3.67;3.00;;;;;;;;6302724;22;45196;-67
2021/08/28 14:01:23;;;;;;;;;11.00;8.67;;;;;;;;6302505;22;45266;-68
2021/08/28 14:03:48;;;;;;;;;10.50;10.00;;;;;;;;6302247;22;45171;-68
2021/08/28 14:06:13;;;;;;;;;4.67;4.67;;;;;;;;6302290;22;46216;-68
2021/08/28 14:08:38;;;;;;;;;10.75;10.75;;;;;;;;6273960;22;45346;-67
2021/08/28 14:11:04;;;;;;;;;6.00;5.00;;;;;;;;6302400;22;45255;-67
2021/08/28 14:13:29;;;;;;;;;8.00;5.00;;;;;;;;6302603;22;45416;-68
2021/08/28 14:15:54;;;;;;;;;5.00;2.33;;;;;;;;6301156;22;46876;-68
2021/08/28 14:18:19;;;;;;;;;7.25;7.25;;;;;;;;6301720;22;45418;-67
2021/08/28 14:20:44;;;;;;;;;5.67;5.67;;;;;;;;6302236;22;45194;-69
2021/08/28 14:23:10;;;;;;;;;3.67;3.67;;;;;;;;6301755;22;45335;-68
2021/08/28 14:25:35;;;;;;;;;9.00;6.00;;;;;;;;6274491;22;47111;-68
2021/08/28 14:28:00;;;;;;;;;4.00;3.00;;;;;;;;6302559;22;45291;-68
2021/08/28 14:30:25;;;;;;;;;2.33;2.33;;;;;;;;6302847;22;45266;-67
2021/08/28 14:32:50;;;;;;;;;6.00;3.33;;;;;;;;6302426;22;45383;-68
2021/08/28 14:35:16;;;;;;;;;3.00;3.00;;;;;;;;6301225;22;46162;-67
2021/08/28 14:37:41;;;;;;;;;2.00;2.00;;;;;;;;6302724;22;45300;-67
2021/08/28 14:40:07;;;;;;;;;2.00;2.00;;;;;;;;6303169;22;45266;-68